Terminal Aerodrome Forecast
Issued by NWS Twin Cities, MN

Home | Current Version | Previous Version | Graphics & Text | Print | Product List | Glossary On
Versions: 1 2 3 4 5 6 7 8 9 10 11 12 13
000
FTUS43 KMPX 251500 AAA
TAFEAU
TAF AMD
KEAU 251505Z 2515/2612 23007KT P6SM OVC012
     FM252000 VRB03KT P6SM BKN015 OVC100
     FM260500 VRB03KT P6SM OVC015=

USA.gov is the U.S. government's official web portal to all federal, state and local government web resources and services.